Time;durP1;ratioP1;P1;durP2;ratioP2;P2;SDS_P1;SDS_P2;PMS_P1;PMS_P2;Temp;Humidity;BMP_temperature;BMP_pressure;BME280_temperature;BME280_humidity;BME280_pressure;Samples;Min_cycle;Max_cycle;Signal;HPM_P1;HPM_P2
2022/09/20 00:01:10;;;;;;;2.40;1.30;;;;;;;7.02;100.00;100540.05;1698444;84;21043;-37
2022/09/20 00:03:42;;;;;;;1.70;1.07;;;;;;;6.97;100.00;100530.66;1698463;84;21557;-37
2022/09/20 00:06:12;;;;;;;1.25;1.15;;;;;;;6.93;100.00;100529.80;1698089;84;21020;-37
2022/09/20 00:08:39;;;;;;;1.17;1.00;;;;;;;6.92;100.00;100532.36;1698702;84;21494;-37
2022/09/20 00:11:10;;;;;;;1.12;1.07;;;;;;;6.89;100.00;100532.80;1698352;84;20952;-37
2022/09/20 00:13:38;;;;;;;1.05;0.93;;;;;;;6.88;100.00;100526.38;1698384;84;20920;-37
2022/09/20 00:16:08;;;;;;;1.02;1.02;;;;;;;6.86;100.00;100524.24;1698498;84;21442;-37
2022/09/20 00:18:35;;;;;;;1.55;1.00;;;;;;;6.83;100.00;100519.11;1698602;84;20920;-37
2022/09/20 00:21:02;;;;;;;0.93;0.93;;;;;;;6.84;100.00;100516.51;1670406;84;22123;-37
2022/09/20 00:23:30;;;;;;;2.17;0.70;;;;;;;6.79;100.00;100520.81;1698379;84;21513;-37
2022/09/20 00:25:59;;;;;;;2.83;0.95;;;;;;;6.74;100.00;100518.69;1670559;84;20984;-37
2022/09/20 00:28:27;;;;;;;5.33;0.93;;;;;;;6.70;100.00;100517.83;1698550;84;21032;-37
2022/09/20 00:30:54;;;;;;;3.42;0.80;;;;;;;6.65;100.00;100515.69;1689341;83;20885;-37
2022/09/20 00:33:22;;;;;;;2.75;1.07;;;;;;;6.64;100.00;100513.11;1688247;85;21246;-37
2022/09/20 00:35:49;;;;;;;2.55;1.52;;;;;;;6.64;100.00;100515.68;1688187;85;21007;-37
2022/09/20 00:38:16;;;;;;;1.20;0.80;;;;;;;6.65;100.00;100514.41;1688434;85;21494;-37
2022/09/20 00:40:43;;;;;;;0.78;0.78;;;;;;;6.63;100.00;100512.27;1688172;85;20961;-37
2022/09/20 00:43:15;;;;;;;2.60;1.20;;;;;;;6.60;100.00;100513.11;1688105;85;21558;-37
2022/09/20 00:45:45;;;;;;;3.90;0.82;;;;;;;6.55;100.00;100513.55;1688468;85;21200;-37
2022/09/20 00:48:26;;;;;;;0.98;0.98;;;;;;;6.53;100.00;100511.83;1666449;85;20972;-37
2022/09/20 00:50:57;;;;;;;2.10;1.07;;;;;;;6.52;100.00;100512.69;1688230;85;20928;-37
2022/09/20 00:53:35;;;;;;;2.50;1.00;;;;;;;6.45;100.00;100519.13;1687693;85;21016;-37
2022/09/20 00:56:21;;;;;;;1.12;0.85;;;;;;;6.42;100.00;100511.42;1688269;85;20965;-37
2022/09/20 00:59:00;;;;;;;1.57;1.10;;;;;;;6.43;100.00;100510.56;1688288;85;21059;-37
2022/09/20 01:01:26;;;;;;;1.27;0.88;;;;;;;6.46;100.00;100511.84;1688156;85;21000;-37
2022/09/20 01:03:54;;;;;;;0.85;0.85;;;;;;;6.44;100.00;100512.69;1688239;85;21643;-37
2022/09/20 01:06:20;;;;;;;4.15;0.85;;;;;;;6.44;100.00;100516.13;1688101;85;20976;-37
2022/09/20 01:08:50;;;;;;;0.90;0.80;;;;;;;6.42;100.00;100516.98;1688184;85;21266;-37
2022/09/20 01:11:17;;;;;;;3.65;1.25;;;;;;;6.42;100.00;100518.27;1688080;85;21136;-37
2022/09/20 01:13:43;;;;;;;3.02;1.00;;;;;;;6.43;100.00;100518.27;1688041;85;20881;-37
2022/09/20 01:16:10;;;;;;;1.00;0.90;;;;;;;6.45;100.00;100514.44;1688021;85;21514;-37
2022/09/20 01:18:37;;;;;;;2.25;1.00;;;;;;;6.49;100.00;100507.14;1688202;85;20921;-37
2022/09/20 01:21:04;;;;;;;1.98;0.85;;;;;;;6.54;100.00;100508.40;1688247;85;21447;-37
2022/09/20 01:23:40;;;;;;;1.75;0.93;;;;;;;6.54;100.00;100510.55;1688116;85;21126;-37
2022/09/20 01:26:41;;;;;;;1.85;1.00;;;;;;;6.52;100.00;100507.13;1688110;85;21012;-37
2022/09/20 01:29:32;;;;;;;1.27;0.90;;;;;;;6.50;100.00;100502.42;1666205;83;21027;-37
2022/09/20 01:32:01;;;;;;;0.93;0.93;;;;;;;6.46;100.00;100496.86;1688066;85;21015;-37
2022/09/20 01:34:33;;;;;;;2.22;1.20;;;;;;;6.43;100.00;100500.69;1688307;85;21051;-37
2022/09/20 01:37:11;;;;;;;0.88;0.88;;;;;;;6.39;100.00;100496.00;1688164;85;21131;-37
2022/09/20 01:39:55;;;;;;;0.95;0.82;;;;;;;6.37;100.00;100488.72;1688233;85;20905;-37
2022/09/20 01:42:27;;;;;;;4.28;0.78;;;;;;;6.37;100.00;100485.27;1687968;85;21571;-37
2022/09/20 01:45:12;;;;;;;0.70;0.70;;;;;;;6.36;100.00;100479.70;1666899;85;21035;-37
2022/09/20 01:48:12;;;;;;;1.10;1.00;;;;;;;6.36;100.00;100483.14;1677301;85;21016;-37
2022/09/20 01:51:21;;;;;;;0.90;0.90;;;;;;;6.36;100.00;100469.00;1688360;85;21887;-37
2022/09/20 01:54:18;;;;;;;0.85;0.85;;;;;;;6.38;100.00;100474.13;1688162;85;21000;-37
2022/09/20 01:57:10;;;;;;;0.88;0.88;;;;;;;6.38;100.00;100477.98;1688001;85;21316;-37
2022/09/20 01:59:51;;;;;;;0.72;0.70;;;;;;;6.35;100.00;100477.58;1688040;84;21537;-37
2022/09/20 02:02:56;;;;;;;3.22;0.95;;;;;;;6.32;100.00;100477.58;1688032;85;21020;-37
2022/09/20 02:06:07;;;;;;;3.20;0.80;;;;;;;6.28;100.00;100477.13;1688200;85;21170;-37
2022/09/20 02:09:01;;;;;;;1.25;1.07;;;;;;;6.25;100.00;100471.58;1688083;85;21566;-37
2022/09/20 02:11:35;;;;;;;1.07;0.98;;;;;;;6.20;100.00;100472.42;1643387;86;20985;-37
2022/09/20 02:14:07;;;;;;;2.95;1.25;;;;;;;6.14;100.00;100473.27;1643440;87;20958;-37
2022/09/20 02:16:46;;;;;;;1.75;0.98;;;;;;;6.07;100.00;100475.42;1663106;85;20985;-37
2022/09/20 02:19:33;;;;;;;2.70;1.15;;;;;;;6.00;100.00;100477.97;1688149;85;21258;-37
2022/09/20 02:22:20;;;;;;;0.85;0.85;;;;;;;5.94;100.00;100475.81;1688241;85;20869;-37
2022/09/20 02:24:58;;;;;;;1.67;0.80;;;;;;;5.88;100.00;100486.92;1688489;85;21028;-37
2022/09/20 02:28:13;;;;;;;0.80;0.80;;;;;;;5.84;100.00;100481.36;1681172;85;20919;-37
2022/09/20 02:31:01;;;;;;;1.17;1.07;;;;;;;5.84;100.00;100481.36;1688121;83;20945;-37
2022/09/20 02:34:24;;;;;;;1.55;1.07;;;;;;;5.78;100.00;100478.34;1688172;85;21368;-37
2022/09/20 02:37:34;;;;;;;0.70;0.70;;;;;;;5.75;100.00;100479.22;1688059;85;20956;-37
2022/09/20 02:40:43;;;;;;;1.05;0.95;;;;;;;5.74;100.00;100480.07;1661947;85;21091;-37
2022/09/20 02:43:34;;;;;;;1.00;0.85;;;;;;;5.71;100.00;100483.05;1661992;86;20952;-37
2022/09/20 02:46:15;;;;;;;1.22;0.75;;;;;;;5.69;100.00;100475.36;1682928;85;21028;-37
2022/09/20 02:49:04;;;;;;;6.80;0.98;;;;;;;5.71;100.00;100475.34;1687761;85;21360;-37
2022/09/20 02:51:45;;;;;;;0.95;0.95;;;;;;;5.69;100.00;100468.06;1688150;85;21000;-37
2022/09/20 02:55:03;;;;;;;6.12;1.22;;;;;;;5.64;100.00;100468.48;1687833;85;20960;-37
2022/09/20 02:58:10;;;;;;;1.20;1.10;;;;;;;5.60;100.00;100472.34;1688194;84;20969;-37
2022/09/20 03:00:45;;;;;;;0.98;0.90;;;;;;;5.56;100.00;100464.61;1688309;85;20965;-37
2022/09/20 03:03:32;;;;;;;4.12;0.90;;;;;;;5.52;100.00;100462.89;1666696;85;21080;-37
2022/09/20 03:06:13;;;;;;;1.50;1.05;;;;;;;5.51;100.00;100458.61;1687455;85;21490;-37
2022/09/20 03:09:13;;;;;;;1.60;1.07;;;;;;;5.51;100.00;100452.20;1688196;84;20925;-37
2022/09/20 03:12:01;;;;;;;5.53;0.88;;;;;;;5.51;100.00;100459.90;1665320;85;21023;-37
2022/09/20 03:14:32;;;;;;;3.98;0.90;;;;;;;5.51;100.00;100449.63;1667321;85;21067;-37
2022/09/20 03:17:19;;;;;;;2.55;0.98;;;;;;;5.51;100.00;100449.63;1638073;85;21182;-37
2022/09/20 03:20:09;;;;;;;2.92;1.20;;;;;;;5.52;100.00;100454.75;1688230;84;20952;-37
2022/09/20 03:23:08;;;;;;;7.62;1.40;;;;;;;5.50;100.00;100446.19;1688048;85;20929;-37
2022/09/20 03:25:54;;;;;;;1.72;1.25;;;;;;;5.52;100.00;100451.34;1688372;85;21530;-37
2022/09/20 03:28:48;;;;;;;1.12;1.12;;;;;;;5.53;100.00;100453.05;1635661;85;21028;-37
2022/09/20 03:31:51;;;;;;;116.53;57.43;;;;;;;5.54;100.00;100457.33;1708022;83;21154;-37
2022/09/20 03:34:31;;;;;;;126.12;61.77;;;;;;;5.50;100.00;100446.63;1721110;82;20983;-37
2022/09/20 03:37:09;;;;;;;79.10;41.45;;;;;;;5.45;100.00;100453.90;1692642;84;21018;-37
2022/09/20 03:39:53;;;;;;;52.53;28.87;;;;;;;5.43;100.00;100451.76;1692251;84;21592;-37
2022/09/20 03:42:30;;;;;;;30.45;14.28;;;;;;;5.44;100.00;100450.91;1692820;84;21029;-37
2022/09/20 03:45:29;;;;;;;17.70;9.33;;;;;;;5.45;100.00;100459.03;1667062;84;21287;-37
2022/09/20 03:48:30;;;;;;;6.10;3.65;;;;;;;5.48;100.00;100456.88;1691228;84;20928;-37
2022/09/20 03:51:36;;;;;;;5.33;3.12;;;;;;;5.56;100.00;100451.77;1721957;83;21516;-37
2022/09/20 03:54:40;;;;;;;2.98;2.77;;;;;;;5.66;100.00;100450.92;1692713;84;21589;-37
2022/09/20 03:57:39;;;;;;;3.27;2.72;;;;;;;5.75;100.00;100448.39;1692698;84;20999;-37
2022/09/20 04:00:34;;;;;;;4.90;2.40;;;;;;;5.85;100.00;100450.95;1692712;84;21250;-37
2022/09/20 04:03:44;;;;;;;6.15;3.58;;;;;;;5.94;100.00;100449.70;1692726;84;20892;-37
2022/09/20 04:06:33;;;;;;;11.83;4.10;;;;;;;6.07;100.00;100451.01;1692577;83;20994;-37
2022/09/20 04:09:28;;;;;;;7.08;3.30;;;;;;;6.23;100.00;100453.14;1721620;83;21006;-37
2022/09/20 04:12:09;;;;;;;12.13;3.20;;;;;;;6.38;100.00;100453.14;1661264;84;20884;-37
2022/09/20 04:14:48;;;;;;;6.15;3.25;;;;;;;6.56;100.00;100447.52;1686043;85;21927;-37
2022/09/20 04:17:33;;;;;;;6.78;2.37;;;;;;;6.74;100.00;100453.08;1703080;84;20948;-37
2022/09/20 04:20:20;;;;;;;10.10;2.42;;;;;;;6.97;100.00;100462.00;1703095;84;20995;-38
2022/09/20 04:22:50;;;;;;;11.50;2.50;;;;;;;7.19;100.00;100461.48;1721558;82;21430;-37
2022/09/20 04:25:20;;;;;;;5.85;2.27;;;;;;;7.36;100.00;100461.84;1692738;84;20998;-37
2022/09/20 04:28:01;;;;;;;6.20;2.40;;;;;;;7.47;100.00;100458.80;1692773;84;21145;-37
2022/09/20 04:30:29;;;;;;;15.70;2.90;;;;;;;7.59;100.00;100467.30;1687492;84;20990;-38
2022/09/20 04:33:01;;;;;;;11.83;2.90;;;;;;;7.69;100.00;100467.66;1736242;82;20933;-37
2022/09/20 04:39:12;;;;;;;11.68;2.47;;;;;;;7.84;100.00;100466.73;1735953;82;20908;-37
2022/09/20 04:42:12;;;;;;;16.80;2.83;;;;;;;7.94;100.00;100466.66;1735395;82;21224;-37
2022/09/20 04:45:07;;;;;;;17.45;3.80;;;;;;;8.02;100.00;100473.47;1715003;82;20977;-38
2022/09/20 04:48:24;;;;;;;17.40;2.30;;;;;;;8.10;100.00;100469.97;1724567;82;20897;-37
2022/09/20 04:51:23;;;;;;;16.27;3.17;;;;;;;8.16;100.00;100464.75;1736151;82;20928;-37
2022/09/20 04:54:13;;;;;;;12.05;4.87;;;;;;;8.26;100.00;100465.11;1735953;82;20916;-38
2022/09/20 04:56:57;;;;;;;28.40;7.00;;;;;;;8.33;100.00;100461.59;1735311;82;21260;-37
2022/09/20 05:00:11;;;;;;;15.45;6.15;;;;;;;8.41;100.00;100469.70;1735469;82;20878;-37
2022/09/20 05:03:09;;;;;;;14.07;4.58;;;;;;;8.48;100.00;100466.21;1735854;82;20941;-37
2022/09/20 05:06:29;;;;;;;12.93;5.25;;;;;;;8.57;100.00;100457.11;1735917;82;20936;-38
2022/09/20 05:09:37;;;;;;;15.05;5.40;;;;;;;8.66;100.00;100457.87;1721996;82;20957;-37
2022/09/20 05:12:29;;;;;;;18.98;6.28;;;;;;;8.77;100.00;100467.22;1735929;81;21053;-37
2022/09/20 05:15:12;;;;;;;20.95;6.95;;;;;;;8.91;100.00;100458.03;1735181;82;20969;-37
2022/09/20 05:18:08;;;;;;;8.30;5.50;;;;;;;9.02;100.00;100453.19;1735825;82;20952;-37
2022/09/20 05:21:11;;;;;;;12.03;5.22;;;;;;;9.16;100.00;100447.86;1736006;82;21004;-37
2022/09/20 05:23:44;;;;;;;18.55;4.87;;;;;;;9.30;100.00;100447.67;1735855;82;20941;-37
2022/09/20 05:26:25;;;;;;;14.23;4.58;;;;;;;9.45;100.00;100444.86;1714941;82;21237;-37
2022/09/20 05:29:15;;;;;;;13.83;4.70;;;;;;;9.59;100.00;100442.53;1722635;82;20974;-37
2022/09/20 05:32:17;;;;;;;17.32;4.50;;;;;;;9.73;100.00;100442.33;1735767;81;21360;-38
2022/09/20 05:34:58;;;;;;;8.43;5.08;;;;;;;9.88;100.00;100439.95;1735882;82;20987;-37
2022/09/20 05:38:01;;;;;;;10.50;4.50;;;;;;;10.04;100.00;100438.83;1735297;82;21320;-37
2022/09/20 05:41:09;;;;;;;24.12;4.45;;;;;;;10.16;100.00;100429.14;1735935;82;21092;-38
2022/09/20 05:43:59;;;;;;;9.88;4.05;;;;;;;10.27;100.00;100427.66;1735839;82;21467;-37
2022/09/20 05:47:04;;;;;;;11.40;4.10;;;;;;;10.39;100.00;100424.00;1733965;82;21020;-37
2022/09/20 05:49:52;;;;;;;17.35;4.25;;;;;;;10.54;100.00;100431.96;1735846;82;20897;-38
2022/09/20 05:52:52;;;;;;;11.93;3.92;;;;;;;10.72;100.00;100431.62;1701894;82;21023;-38
2022/09/20 05:55:52;;;;;;;17.23;3.33;;;;;;;10.87;100.00;100438.23;1735774;82;21221;-38
2022/09/20 05:58:34;;;;;;;11.55;3.42;;;;;;;11.05;100.00;100437.00;1735792;82;20890;-38
2022/09/20 06:01:31;;;;;;;14.18;3.50;;;;;;;11.23;100.00;100443.11;1735913;82;20968;-38
2022/09/20 06:04:20;;;;;;;18.45;3.25;;;;;;;11.41;100.00;100440.59;1735536;82;20980;-38
2022/09/20 06:07:23;;;;;;;18.80;3.98;;;;;;;11.62;100.00;100448.31;1719656;82;21545;-38
2022/09/20 06:10:01;;;;;;;19.95;2.90;;;;;;;11.78;100.00;100443.63;1736104;82;21468;-38
2022/09/20 06:13:03;;;;;;;18.32;3.72;;;;;;;11.93;100.00;100444.56;1735725;82;20936;-39
2022/09/20 06:15:59;;;;;;;26.00;3.98;;;;;;;12.04;100.00;100447.36;1735888;82;20972;-38
2022/09/20 06:18:38;;;;;;;28.50;3.85;;;;;;;12.12;100.00;100450.61;1735761;82;20937;-38
2022/09/20 06:21:57;;;;;;;28.38;4.05;;;;;;;12.24;100.00;100452.04;1714985;82;20964;-37
2022/09/20 06:24:44;;;;;;;18.05;3.10;;;;;;;12.39;100.00;100452.55;1735693;81;21249;-38
2022/09/20 06:27:25;;;;;;;7.67;2.30;;;;;;;12.57;100.00;100444.28;1735622;81;20913;-38
2022/09/20 06:29:56;;;;;;;13.72;2.75;;;;;;;12.76;100.00;100447.22;1735694;82;21462;-38
2022/09/20 06:32:23;;;;;;;6.90;2.35;;;;;;;12.92;100.00;100446.34;1744607;81;20976;-38
2022/09/20 06:34:50;;;;;;;10.40;2.62;;;;;;;13.08;100.00;100441.55;1749771;82;22109;-37
2022/09/20 06:43:19;;;;;;;5.58;1.87;;;;;;;13.59;100.00;100457.41;1749831;82;20932;-38
2022/09/20 06:47:28;;;;;;;4.37;1.80;;;;;;;13.84;100.00;100468.34;1816149;79;23413;-38
2022/09/20 06:49:55;;;;;;;5.60;2.33;;;;;;;13.91;100.00;100468.58;1789219;80;20931;-38
2022/09/20 06:52:22;;;;;;;4.67;1.87;;;;;;;14.04;100.00;100475.53;1789128;80;20991;-38
2022/09/20 06:54:53;;;;;;;9.30;2.37;;;;;;;14.12;100.00;100471.82;1789083;80;20947;-38
2022/09/20 06:57:34;;;;;;;11.03;2.40;;;;;;;14.17;100.00;100469.91;1789212;80;22291;-37
2022/09/20 07:00:03;;;;;;;7.15;3.30;;;;;;;14.22;100.00;100474.50;1757138;81;21481;-38
2022/09/20 07:02:30;;;;;;;10.53;3.35;;;;;;;14.23;100.00;100473.60;1729108;81;20991;-38
2022/09/20 07:04:58;;;;;;;14.07;4.87;;;;;;;14.23;100.00;100477.06;1757833;81;21045;-38
2022/09/20 07:07:25;;;;;;;17.25;7.65;;;;;;;14.24;100.00;100475.30;1757979;81;20935;-38
2022/09/20 07:09:52;;;;;;;14.58;7.05;;;;;;;14.21;100.00;100469.77;1757973;81;20983;-38
2022/09/20 07:12:20;;;;;;;14.35;5.30;;;;;;;14.20;100.00;100467.20;1758015;81;20967;-38
2022/09/20 07:14:49;;;;;;;9.90;4.17;;;;;;;14.12;100.00;100459.64;1757937;81;20925;-38
2022/09/20 07:17:16;;;;;;;12.80;4.45;;;;;;;14.06;100.00;100452.91;1757851;81;21839;-38
2022/09/20 07:19:42;;;;;;;15.93;5.08;;;;;;;14.02;100.00;100446.11;1757921;81;20935;-38
2022/09/20 07:22:09;;;;;;;12.55;5.22;;;;;;;14.00;100.00;100445.74;1757977;81;20892;-38
2022/09/20 07:24:37;;;;;;;13.65;5.25;;;;;;;13.97;100.00;100445.84;1757946;81;20940;-38
2022/09/20 07:27:06;;;;;;;20.27;6.55;;;;;;;13.97;100.00;100437.58;1758062;81;21485;-38
2022/09/20 07:29:34;;;;;;;17.15;7.75;;;;;;;13.97;100.00;100433.67;1757966;81;21317;-38
2022/09/20 07:32:01;;;;;;;19.05;8.75;;;;;;;13.99;100.00;100422.76;1757995;81;21563;-38
2022/09/20 07:34:28;;;;;;;16.12;8.35;;;;;;;14.02;100.00;100417.48;1758006;81;20987;-38
2022/09/20 07:36:58;;;;;;;16.70;8.38;;;;;;;14.06;100.00;100426.02;1757797;81;20907;-38
2022/09/20 07:39:25;;;;;;;16.27;7.92;;;;;;;14.17;100.00;100421.75;1758206;81;21015;-38
2022/09/20 07:41:53;;;;;;;15.75;7.53;;;;;;;14.29;100.00;100418.74;1758074;81;21202;-38
2022/09/20 07:44:26;;;;;;;21.07;8.93;;;;;;;14.48;100.00;100423.29;1757935;81;20892;-38
2022/09/20 07:46:58;;;;;;;20.62;8.55;;;;;;;14.68;100.00;100423.90;1754794;81;21509;-39
2022/09/20 07:49:25;;;;;;;18.25;8.08;;;;;;;14.90;100.00;100422.69;1753485;81;21477;-39
2022/09/20 07:51:52;;;;;;;19.25;8.58;;;;;;;15.18;100.00;100428.16;1753130;81;20927;-38
2022/09/20 07:54:19;;;;;;;18.35;9.88;;;;;;;15.46;100.00;100416.66;1753165;81;21244;-38
2022/09/20 07:56:46;;;;;;;15.72;8.35;;;;;;;15.70;97.83;100419.19;1753039;81;20892;-38
2022/09/20 07:59:13;;;;;;;18.87;7.30;;;;;;;15.99;97.54;100415.88;1752593;80;21015;-39
2022/09/20 08:01:41;;;;;;;16.82;8.70;;;;;;;16.25;95.81;100417.00;1752562;81;20936;-39
2022/09/20 08:04:08;;;;;;;9.88;4.65;;;;;;;16.44;94.59;100407.91;1752877;82;21410;-39
2022/09/20 08:06:38;;;;;;;22.77;4.67;;;;;;;16.56;90.14;100408.69;1752430;81;21018;-39
2022/09/20 08:09:05;;;;;;;19.82;9.23;;;;;;;16.60;88.01;100409.38;1752089;81;21458;-39
2022/09/20 08:11:34;;;;;;;8.68;4.50;;;;;;;16.65;88.09;100405.66;1752664;81;20932;-39
2022/09/20 08:14:02;;;;;;;16.97;5.08;;;;;;;16.71;87.65;100407.59;1752618;81;20928;-39
2022/09/20 08:16:30;;;;;;;11.93;7.35;;;;;;;16.70;87.54;100404.15;1752832;82;21485;-38
2022/09/20 08:18:59;;;;;;;7.25;3.52;;;;;;;16.70;87.47;100406.77;1752598;82;21170;-38
2022/09/20 08:21:30;;;;;;;8.80;3.27;;;;;;;16.70;87.28;100408.52;1752513;82;20940;-39
2022/09/20 08:23:57;;;;;;;6.12;3.00;;;;;;;16.64;86.97;100402.65;1725207;81;20932;-39
2022/09/20 08:26:24;;;;;;;4.28;2.92;;;;;;;16.55;86.79;100408.30;1752415;81;20991;-39
2022/09/20 08:28:53;;;;;;;4.85;3.00;;;;;;;16.52;87.21;100405.80;1752597;82;20975;-39
2022/09/20 08:31:23;;;;;;;5.37;3.08;;;;;;;16.54;88.44;100407.88;1752524;82;21400;-39
2022/09/20 08:33:51;;;;;;;12.13;3.55;;;;;;;16.60;88.53;100414.16;1752814;81;21015;-39
2022/09/20 08:36:20;;;;;;;15.70;4.30;;;;;;;16.71;87.60;100415.44;1752503;81;20927;-39
2022/09/20 08:38:47;;;;;;;13.78;3.80;;;;;;;16.76;87.81;100405.62;1752458;81;21370;-39
2022/09/20 08:41:24;;;;;;;20.52;4.12;;;;;;;16.89;88.30;100415.92;1752480;82;20983;-39
2022/09/20 08:43:56;;;;;;;14.60;4.33;;;;;;;16.99;88.51;100405.92;1752533;82;21904;-38
2022/09/20 08:46:27;;;;;;;9.13;4.50;;;;;;;16.99;87.57;100407.67;1752319;81;21541;-39
2022/09/20 08:48:56;;;;;;;8.13;4.05;;;;;;;16.87;88.45;100402.08;1752383;82;21023;-39
2022/09/20 08:51:23;;;;;;;10.35;4.00;;;;;;;16.77;89.35;100398.16;1752211;82;20986;-38
2022/09/20 08:53:53;;;;;;;8.15;4.00;;;;;;;16.72;90.17;100401.45;1752294;82;20916;-39
2022/09/20 08:56:20;;;;;;;10.10;4.50;;;;;;;16.69;90.85;100400.28;1752171;82;21055;-38
2022/09/20 08:58:46;;;;;;;10.03;4.08;;;;;;;16.64;90.59;100400.04;1752024;80;21519;-38
2022/09/20 09:01:20;;;;;;;5.72;3.52;;;;;;;16.63;90.07;100397.04;1752337;82;20943;-38
2022/09/20 09:03:51;;;;;;;6.42;3.47;;;;;;;16.57;91.27;100400.38;1752169;82;21038;-38
2022/09/20 09:06:19;;;;;;;5.83;3.70;;;;;;;16.57;91.99;100393.84;1750591;82;21038;-38
2022/09/20 09:08:50;;;;;;;6.45;3.33;;;;;;;16.63;92.69;100390.50;1752312;82;21153;-38
2022/09/20 09:11:16;;;;;;;6.90;3.50;;;;;;;16.73;93.33;100386.16;1752052;82;20979;-38
2022/09/20 09:14:46;;;;;;;9.90;3.55;;;;;;;16.82;92.72;100385.76;1752095;82;20944;-39
2022/09/20 09:16:38;;;;;;;9.93;3.08;;;;;;;16.81;92.13;100387.98;1747912;82;20919;-39
2022/09/20 09:19:33;;;;;;;7.40;2.92;;;;;;;16.76;92.35;100388.63;1752343;82;20983;-39
2022/09/20 09:22:01;;;;;;;3.75;2.52;;;;;;;16.77;92.71;100399.03;1722857;82;21884;-39
2022/09/20 09:24:30;;;;;;;9.90;3.10;;;;;;;16.71;92.41;100397.14;1752610;82;21041;-39
2022/09/20 09:27:15;;;;;;;11.08;2.50;;;;;;;16.65;92.56;100389.98;1752107;82;21461;-39
2022/09/20 09:29:52;;;;;;;5.28;2.85;;;;;;;16.65;93.01;100389.11;1752343;82;20994;-38
2022/09/20 09:32:27;;;;;;;5.35;2.37;;;;;;;16.64;93.08;100394.81;1751658;82;21477;-38
2022/09/20 09:34:54;;;;;;;3.40;2.50;;;;;;;16.70;92.90;100400.67;1752353;82;21174;-38
2022/09/20 09:37:28;;;;;;;3.35;2.10;;;;;;;16.71;93.83;100398.00;1752280;82;20943;-38
2022/09/20 09:40:16;;;;;;;2.95;1.95;;;;;;;16.79;94.41;100397.63;1751981;82;20936;-38
2022/09/20 09:42:56;;;;;;;3.33;1.95;;;;;;;16.90;93.91;100395.39;1745141;82;20901;-38
2022/09/20 09:45:37;;;;;;;4.22;1.90;;;;;;;16.99;93.12;100397.22;1752025;82;20951;-38
2022/09/20 09:48:30;;;;;;;4.92;2.37;;;;;;;16.95;92.30;100399.95;1700672;81;21255;-38
2022/09/20 09:51:11;;;;;;;3.92;2.02;;;;;;;16.87;92.46;100394.67;1750563;81;21046;-38
2022/09/20 09:53:38;;;;;;;4.65;1.80;;;;;;;16.77;92.10;100398.16;1754504;81;21508;-38
2022/09/20 09:56:47;;;;;;;4.15;2.00;;;;;;;16.69;92.59;100388.08;1754384;81;20987;-38
2022/09/20 09:59:56;;;;;;;5.15;2.17;;;;;;;16.65;92.98;100386.50;1725031;81;20912;-38
2022/09/20 10:03:05;;;;;;;4.47;2.00;;;;;;;16.63;92.82;100384.41;1754359;81;21357;-38
2022/09/20 10:06:18;;;;;;;2.50;2.30;;;;;;;16.51;92.88;100380.59;1754068;81;20946;-38
2022/09/20 10:09:09;;;;;;;3.27;2.45;;;;;;;16.40;93.39;100380.23;1754425;81;20995;-39
2022/09/20 10:11:51;;;;;;;17.12;2.90;;;;;;;16.27;93.70;100379.91;1754468;81;20861;-38
2022/09/20 10:14:53;;;;;;;6.80;2.80;;;;;;;16.20;94.95;100376.72;1754449;81;21430;-38
2022/09/20 10:18:02;;;;;;;4.15;2.70;;;;;;;16.20;95.17;100371.48;1754291;81;21556;-38
2022/09/20 10:20:37;;;;;;;6.20;3.12;;;;;;;16.14;93.90;100370.45;1754440;81;21011;-38
2022/09/20 10:23:43;;;;;;;6.20;2.70;;;;;;;16.00;95.31;100365.83;1754640;81;20920;-38
2022/09/20 10:26:47;;;;;;;9.30;2.75;;;;;;;16.01;96.35;100356.61;1754324;81;20947;-38
2022/09/20 10:29:32;;;;;;;8.10;2.60;;;;;;;16.03;96.31;100363.09;1754276;81;20967;-38
2022/09/20 10:32:22;;;;;;;6.50;2.83;;;;;;;16.00;96.56;100358.83;1730216;81;21408;-38
2022/09/20 10:35:13;;;;;;;4.15;2.15;;;;;;;15.98;95.81;100354.13;1754211;81;20889;-38
2022/09/20 10:38:13;;;;;;;3.33;2.52;;;;;;;15.89;95.58;100345.41;1754186;81;21506;-39
2022/09/20 10:44:11;;;;;;;8.93;2.22;;;;;;;15.75;96.18;100332.91;1754241;81;21059;-38
2022/09/20 10:47:06;;;;;;;3.47;2.12;;;;;;;15.71;96.29;100340.00;1753230;81;21170;-39
2022/09/20 10:50:15;;;;;;;3.80;1.72;;;;;;;15.71;97.27;100336.09;1744396;82;20963;-38
2022/09/20 10:52:56;;;;;;;2.00;1.67;;;;;;;15.75;97.69;100320.69;1744601;82;20908;-38
2022/09/20 10:55:34;;;;;;;5.72;1.90;;;;;;;15.89;96.99;100319.30;1744125;82;20964;-38
2022/09/20 10:58:38;;;;;;;6.37;1.92;;;;;;;16.04;95.05;100322.56;1744164;82;20865;-38
2022/09/20 11:01:40;;;;;;;4.00;1.70;;;;;;;16.27;95.59;100322.46;1744292;82;21216;-38
2022/09/20 11:04:32;;;;;;;8.43;1.60;;;;;;;16.58;94.16;100314.09;1744235;82;21003;-38
2022/09/20 11:07:25;;;;;;;6.95;1.47;;;;;;;16.89;92.04;100304.82;1744148;82;20937;-38
2022/09/20 11:10:00;;;;;;;2.22;1.98;;;;;;;17.17;87.83;100298.30;1744255;82;20968;-39
2022/09/20 11:12:38;;;;;;;6.50;2.08;;;;;;;17.32;88.41;100294.08;1744190;82;20995;-38
2022/09/20 11:15:24;;;;;;;4.85;1.45;;;;;;;17.51;87.27;100288.77;1744382;82;21002;-38
2022/09/20 11:18:02;;;;;;;5.92;1.50;;;;;;;17.61;85.26;100290.47;1744339;82;21556;-39
2022/09/20 11:20:34;;;;;;;7.50;1.35;;;;;;;17.69;84.94;100288.77;1744264;82;21542;-39
2022/09/20 11:23:26;;;;;;;1.98;1.30;;;;;;;17.71;85.12;100286.09;1736432;82;21015;-38
2022/09/20 11:25:57;;;;;;;3.12;1.40;;;;;;;17.71;83.88;100289.54;1743993;82;20944;-38
2022/09/20 11:28:39;;;;;;;2.08;1.07;;;;;;;17.60;83.20;100282.23;1743959;82;21419;-38
2022/09/20 11:31:17;;;;;;;1.35;1.25;;;;;;;17.47;83.74;100280.70;1744465;82;20992;-38
2022/09/20 11:33:56;;;;;;;6.55;1.55;;;;;;;17.33;84.30;100268.31;1744233;82;21474;-38
2022/09/20 11:36:53;;;;;;;4.55;1.65;;;;;;;17.28;84.96;100272.06;1744548;82;21001;-38
2022/09/20 11:39:46;;;;;;;8.55;1.40;;;;;;;17.26;86.14;100271.30;1743890;82;20841;-40
2022/09/20 11:42:17;;;;;;;5.42;1.47;;;;;;;17.27;86.02;100272.98;1744596;82;21039;-40
2022/09/20 11:44:45;;;;;;;9.28;1.50;;;;;;;17.26;86.07;100279.14;1744280;82;20984;-39
2022/09/20 11:47:32;;;;;;;3.12;1.22;;;;;;;17.27;86.73;100277.77;1745643;82;21453;-39
2022/09/20 11:50:41;;;;;;;3.05;1.27;;;;;;;17.25;85.66;100273.08;1752274;82;21553;-39
2022/09/20 11:53:18;;;;;;;2.90;1.37;;;;;;;17.13;85.59;100264.52;1752612;82;21494;-39
2022/09/20 11:55:57;;;;;;;5.00;1.12;;;;;;;17.06;85.09;100277.06;1752404;82;21335;-38
2022/09/20 11:58:26;;;;;;;1.30;1.20;;;;;;;17.02;85.94;100282.89;1752213;82;20908;-39
2022/09/20 12:00:55;;;;;;;1.02;1.00;;;;;;;16.99;85.34;100287.41;1752301;82;20869;-39
2022/09/20 12:03:38;;;;;;;1.25;1.15;;;;;;;16.95;85.76;100278.86;1722936;82;21046;-39
2022/09/20 12:06:32;;;;;;;5.20;1.07;;;;;;;16.91;86.54;100275.98;1723125;82;21525;-39
2022/09/20 12:09:04;;;;;;;1.85;1.30;;;;;;;16.81;85.78;100272.98;1752340;82;21219;-39
2022/09/20 12:11:37;;;;;;;7.85;1.30;;;;;;;16.70;87.19;100280.02;1752029;82;20963;-39
2022/09/20 12:14:19;;;;;;;3.47;0.98;;;;;;;16.63;87.75;100286.43;1752671;82;21027;-39
2022/09/20 12:16:47;;;;;;;2.58;1.10;;;;;;;16.57;88.94;100286.72;1739935;82;20864;-38
2022/09/20 12:19:35;;;;;;;3.42;1.47;;;;;;;16.57;89.46;100282.80;1752762;82;20980;-39
2022/09/20 12:22:07;;;;;;;6.08;1.00;;;;;;;16.55;88.79;100270.27;1752185;82;21033;-38
2022/09/20 12:24:35;;;;;;;4.03;1.32;;;;;;;16.52;89.79;100260.80;1752323;82;20868;-39
2022/09/20 12:27:26;;;;;;;3.85;1.32;;;;;;;16.52;88.71;100275.16;1752289;82;20983;-39
2022/09/20 12:30:02;;;;;;;6.12;1.75;;;;;;;16.45;88.93;100272.45;1752388;82;21458;-39
2022/09/20 12:32:40;;;;;;;2.92;1.47;;;;;;;16.39;89.96;100264.44;1751752;82;20979;-39
2022/09/20 12:35:38;;;;;;;7.25;1.30;;;;;;;16.40;90.09;100260.91;1752226;82;21260;-39
2022/09/20 12:38:30;;;;;;;8.20;1.40;;;;;;;16.42;90.75;100266.94;1752120;82;20975;-38
2022/09/20 12:41:12;;;;;;;4.12;1.22;;;;;;;16.41;90.90;100259.98;1752172;82;21507;-38
2022/09/20 12:43:51;;;;;;;2.92;1.10;;;;;;;16.41;91.39;100260.46;1752284;82;21518;-39